sensor_id;sensor_type;location;lat;lon;timestamp;pressure;altitude;pressure_sealevel;temperature;humidity
28267;BME280;15525;45.568;5.448;2023-06-22T00:01:09;97830.91;;;26.08;56.15
28267;BME280;15525;45.568;5.448;2023-06-22T00:03:35;97841.19;;;26.14;56.27
28267;BME280;15525;45.568;5.448;2023-06-22T00:06:00;97839.16;;;26.08;56.49
28267;BME280;15525;45.568;5.448;2023-06-22T00:08:25;97826.19;;;26.05;56.33
28267;BME280;15525;45.568;5.448;2023-06-22T00:10:51;97824.38;;;25.86;56.66
28267;BME280;15525;45.568;5.448;2023-06-22T00:13:16;97830.38;;;25.95;56.60
28267;BME280;15525;45.568;5.448;2023-06-22T00:15:43;97834.31;;;25.98;56.58
28267;BME280;15525;45.568;5.448;2023-06-22T00:18:10;97835.16;;;26.02;56.38
28267;BME280;15525;45.568;5.448;2023-06-22T00:20:36;97826.44;;;25.93;56.39
28267;BME280;15525;45.568;5.448;2023-06-22T00:23:04;97826.44;;;25.93;56.38
28267;BME280;15525;45.568;5.448;2023-06-22T00:25:42;97818.75;;;25.76;56.79
28267;BME280;15525;45.568;5.448;2023-06-22T00:28:08;97816.38;;;25.74;56.61
28267;BME280;15525;45.568;5.448;2023-06-22T00:30:34;97817.16;;;25.75;56.80
28267;BME280;15525;45.568;5.448;2023-06-22T00:33:00;97805.28;;;25.64;57.01
28267;BME280;15525;45.568;5.448;2023-06-22T00:35:26;97806.75;;;25.58;57.11
28267;BME280;15525;45.568;5.448;2023-06-22T00:37:59;97805.16;;;25.53;57.51
28267;BME280;15525;45.568;5.448;2023-06-22T00:40:29;97818.53;;;25.32;58.17
28267;BME280;15525;45.568;5.448;2023-06-22T00:42:56;97809.69;;;25.16;58.66
28267;BME280;15525;45.568;5.448;2023-06-22T00:45:22;97806.19;;;25.19;58.35
28267;BME280;15525;45.568;5.448;2023-06-22T00:47:52;97802.16;;;25.10;58.42
28267;BME280;15525;45.568;5.448;2023-06-22T00:50:20;97797.56;;;25.17;58.17
28267;BME280;15525;45.568;5.448;2023-06-22T00:52:57;97784.22;;;25.16;57.98
28267;BME280;15525;45.568;5.448;2023-06-22T00:55:24;97784.03;;;25.28;58.15
28267;BME280;15525;45.568;5.448;2023-06-22T00:57:51;97768.81;;;25.30;57.59
28267;BME280;15525;45.568;5.448;2023-06-22T01:00:21;97767.41;;;25.43;57.24
28267;BME280;15525;45.568;5.448;2023-06-22T01:02:50;97764.28;;;25.45;57.12
28267;BME280;15525;45.568;5.448;2023-06-22T01:05:18;97772.19;;;25.50;56.93
28267;BME280;15525;45.568;5.448;2023-06-22T01:16:17;97732.91;;;25.13;57.79
28267;BME280;15525;45.568;5.448;2023-06-22T01:18:47;97729.28;;;25.05;57.84
28267;BME280;15525;45.568;5.448;2023-06-22T01:21:17;97720.69;;;25.07;57.85
28267;BME280;15525;45.568;5.448;2023-06-22T01:24:15;97735.75;;;25.20;57.36
28267;BME280;15525;45.568;5.448;2023-06-22T01:26:41;97743.97;;;25.20;57.21
28267;BME280;15525;45.568;5.448;2023-06-22T01:29:08;97752.19;;;25.20;57.04
28267;BME280;15525;45.568;5.448;2023-06-22T01:31:38;97759.16;;;25.14;57.31
28267;BME280;15525;45.568;5.448;2023-06-22T01:34:06;97765.94;;;25.23;57.29
28267;BME280;15525;45.568;5.448;2023-06-22T01:36:33;97756.81;;;25.16;57.02
28267;BME280;15525;45.568;5.448;2023-06-22T01:39:00;97742.56;;;25.03;57.30
28267;BME280;15525;45.568;5.448;2023-06-22T01:41:28;97760.09;;;24.99;58.09
28267;BME280;15525;45.568;5.448;2023-06-22T01:43:55;97747.75;;;24.86;58.24
28267;BME280;15525;45.568;5.448;2023-06-22T01:46:21;97754.03;;;24.86;58.19
28267;BME280;15525;45.568;5.448;2023-06-22T01:48:48;97762.53;;;24.78;58.40
28267;BME280;15525;45.568;5.448;2023-06-22T01:51:14;97772.63;;;24.74;58.55
28267;BME280;15525;45.568;5.448;2023-06-22T01:53:39;97767.78;;;24.64;58.73
28267;BME280;15525;45.568;5.448;2023-06-22T01:56:05;97761.09;;;24.61;58.83
28267;BME280;15525;45.568;5.448;2023-06-22T01:58:31;97754.69;;;24.31;59.77
28267;BME280;15525;45.568;5.448;2023-06-22T02:01:10;97782.00;;;24.28;60.42
28267;BME280;15525;45.568;5.448;2023-06-22T02:03:43;97777.28;;;24.28;60.35
28267;BME280;15525;45.568;5.448;2023-06-22T02:06:24;97779.22;;;24.05;60.74
28267;BME280;15525;45.568;5.448;2023-06-22T02:08:56;97781.13;;;24.01;61.11
28267;BME280;15525;45.568;5.448;2023-06-22T02:11:23;97784.28;;;23.84;61.24
28267;BME280;15525;45.568;5.448;2023-06-22T02:13:52;97770.09;;;23.79;61.48
28267;BME280;15525;45.568;5.448;2023-06-22T02:16:19;97774.41;;;23.80;61.15
28267;BME280;15525;45.568;5.448;2023-06-22T02:18:51;97772.53;;;23.84;61.61
28267;BME280;15525;45.568;5.448;2023-06-22T02:21:17;97791.38;;;24.08;60.89
28267;BME280;15525;45.568;5.448;2023-06-22T02:23:43;97771.66;;;24.18;60.26
28267;BME280;15525;45.568;5.448;2023-06-22T02:26:08;97784.00;;;24.53;59.74
28267;BME280;15525;45.568;5.448;2023-06-22T02:28:34;97778.53;;;24.53;59.09
28267;BME280;15525;45.568;5.448;2023-06-22T02:30:59;97775.91;;;24.38;59.15
28267;BME280;15525;45.568;5.448;2023-06-22T02:33:24;97764.00;;;24.27;59.64
28267;BME280;15525;45.568;5.448;2023-06-22T02:35:50;97746.84;;;24.30;59.40
28267;BME280;15525;45.568;5.448;2023-06-22T02:38:15;97770.69;;;24.52;58.72
28267;BME280;15525;45.568;5.448;2023-06-22T02:40:42;97772.47;;;24.63;58.88
28267;BME280;15525;45.568;5.448;2023-06-22T02:43:08;97765.34;;;24.59;58.53
28267;BME280;15525;45.568;5.448;2023-06-22T02:45:33;97758.56;;;24.53;58.69
28267;BME280;15525;45.568;5.448;2023-06-22T02:47:58;97761.78;;;24.58;58.15
28267;BME280;15525;45.568;5.448;2023-06-22T02:50:24;97776.19;;;24.55;57.83
28267;BME280;15525;45.568;5.448;2023-06-22T02:52:50;97761.31;;;23.89;59.51
28267;BME280;15525;45.568;5.448;2023-06-22T02:55:15;97786.81;;;23.93;59.77
28267;BME280;15525;45.568;5.448;2023-06-22T02:57:40;97782.19;;;23.59;60.76
28267;BME280;15525;45.568;5.448;2023-06-22T03:00:09;97805.13;;;23.35;62.06
28267;BME280;15525;45.568;5.448;2023-06-22T03:02:42;97805.19;;;23.39;62.18
28267;BME280;15525;45.568;5.448;2023-06-22T03:05:07;97820.94;;;23.45;62.36
28267;BME280;15525;45.568;5.448;2023-06-22T03:07:42;97818.03;;;23.54;62.08
28267;BME280;15525;45.568;5.448;2023-06-22T03:10:12;97825.94;;;23.78;61.49
28267;BME280;15525;45.568;5.448;2023-06-22T03:12:38;97836.16;;;23.81;61.25
28267;BME280;15525;45.568;5.448;2023-06-22T03:15:08;97837.56;;;23.56;61.64
28267;BME280;15525;45.568;5.448;2023-06-22T03:17:34;97854.66;;;23.34;62.37
28267;BME280;15525;45.568;5.448;2023-06-22T03:20:03;97868.69;;;23.17;62.95
28267;BME280;15525;45.568;5.448;2023-06-22T03:22:41;97868.94;;;23.27;62.68
28267;BME280;15525;45.568;5.448;2023-06-22T03:25:08;97860.91;;;23.69;61.87
28267;BME280;15525;45.568;5.448;2023-06-22T03:27:38;97814.13;;;23.74;61.17
28267;BME280;15525;45.568;5.448;2023-06-22T03:30:06;97823.63;;;24.18;60.63
28267;BME280;15525;45.568;5.448;2023-06-22T03:32:32;97853.78;;;23.83;60.89
28267;BME280;15525;45.568;5.448;2023-06-22T03:34:57;97824.19;;;23.89;61.15
28267;BME280;15525;45.568;5.448;2023-06-22T03:37:25;97821.41;;;23.85;61.18
28267;BME280;15525;45.568;5.448;2023-06-22T03:39:51;97901.69;;;23.43;62.87
28267;BME280;15525;45.568;5.448;2023-06-22T03:42:17;97912.75;;;23.31;62.63
28267;BME280;15525;45.568;5.448;2023-06-22T03:44:43;97905.91;;;23.56;61.79
28267;BME280;15525;45.568;5.448;2023-06-22T03:47:08;97916.09;;;24.09;60.90
28267;BME280;15525;45.568;5.448;2023-06-22T03:49:34;97949.31;;;23.76;61.08
28267;BME280;15525;45.568;5.448;2023-06-22T03:52:01;97947.88;;;23.32;62.36
28267;BME280;15525;45.568;5.448;2023-06-22T03:54:30;97990.63;;;23.40;62.92
28267;BME280;15525;45.568;5.448;2023-06-22T03:56:57;97974.28;;;23.75;62.03
28267;BME280;15525;45.568;5.448;2023-06-22T03:59:23;97944.56;;;24.08;60.95
28267;BME280;15525;45.568;5.448;2023-06-22T04:01:49;97983.91;;;24.38;60.47
28267;BME280;15525;45.568;5.448;2023-06-22T04:04:15;97955.44;;;24.23;60.03
28267;BME280;15525;45.568;5.448;2023-06-22T04:06:40;97925.81;;;24.25;60.12
28267;BME280;15525;45.568;5.448;2023-06-22T04:09:06;97914.75;;;24.22;60.22
28267;BME280;15525;45.568;5.448;2023-06-22T04:11:31;97920.75;;;23.74;61.84
28267;BME280;15525;45.568;5.448;2023-06-22T04:13:57;97914.06;;;23.71;62.36
28267;BME280;15525;45.568;5.448;2023-06-22T04:16:22;97903.34;;;24.16;61.21
28267;BME280;15525;45.568;5.448;2023-06-22T04:18:47;97981.56;;;24.02;61.59
28267;BME280;15525;45.568;5.448;2023-06-22T04:21:13;98002.16;;;23.80;63.03
28267;BME280;15525;45.568;5.448;2023-06-22T04:23:39;97960.38;;;23.99;62.40
28267;BME280;15525;45.568;5.448;2023-06-22T04:26:04;97972.91;;;24.34;61.60
28267;BME280;15525;45.568;5.448;2023-06-22T04:28:30;97972.72;;;24.46;61.24
28267;BME280;15525;45.568;5.448;2023-06-22T04:31:01;97961.44;;;24.29;61.11
28267;BME280;15525;45.568;5.448;2023-06-22T04:33:27;97982.25;;;24.52;60.76
28267;BME280;15525;45.568;5.448;2023-06-22T04:35:54;98003.16;;;24.60;60.69
28267;BME280;15525;45.568;5.448;2023-06-22T04:38:22;97963.75;;;24.46;61.25
28267;BME280;15525;45.568;5.448;2023-06-22T04:40:48;97968.19;;;24.35;60.94
28267;BME280;15525;45.568;5.448;2023-06-22T04:43:14;97982.59;;;24.13;61.31
28267;BME280;15525;45.568;5.448;2023-06-22T04:45:39;97971.81;;;24.20;61.54
28267;BME280;15525;45.568;5.448;2023-06-22T04:48:05;97973.66;;;23.97;62.24
28267;BME280;15525;45.568;5.448;2023-06-22T04:50:30;97947.34;;;24.27;61.52
28267;BME280;15525;45.568;5.448;2023-06-22T04:52:56;97948.09;;;24.08;62.20
28267;BME280;15525;45.568;5.448;2023-06-22T04:55:21;97972.41;;;23.94;62.81
28267;BME280;15525;45.568;5.448;2023-06-22T04:57:48;97957.47;;;23.57;63.74
28267;BME280;15525;45.568;5.448;2023-06-22T05:00:19;97979.34;;;24.07;63.05
28267;BME280;15525;45.568;5.448;2023-06-22T05:02:48;98003.22;;;24.45;62.23
28267;BME280;15525;45.568;5.448;2023-06-22T05:05:15;97999.16;;;24.58;61.87
28267;BME280;15525;45.568;5.448;2023-06-22T05:07:47;98017.19;;;24.59;61.42
28267;BME280;15525;45.568;5.448;2023-06-22T05:10:13;97978.94;;;24.43;61.40
28267;BME280;15525;45.568;5.448;2023-06-22T05:12:40;97990.53;;;24.56;61.62
28267;BME280;15525;45.568;5.448;2023-06-22T05:15:07;97963.88;;;24.72;61.05
28267;BME280;15525;45.568;5.448;2023-06-22T05:17:33;97951.75;;;24.92;60.88
28267;BME280;15525;45.568;5.448;2023-06-22T05:19:58;97935.38;;;24.95;60.42
28267;BME280;15525;45.568;5.448;2023-06-22T05:22:24;97925.50;;;24.91;60.21
28267;BME280;15525;45.568;5.448;2023-06-22T05:24:49;97923.50;;;24.88;60.84
28267;BME280;15525;45.568;5.448;2023-06-22T05:27:15;97949.66;;;24.85;60.88
28267;BME280;15525;45.568;5.448;2023-06-22T05:29:40;97975.75;;;24.98;60.93
28267;BME280;15525;45.568;5.448;2023-06-22T05:32:07;97976.41;;;24.92;60.99
28267;BME280;15525;45.568;5.448;2023-06-22T05:34:33;97988.44;;;24.87;60.89
28267;BME280;15525;45.568;5.448;2023-06-22T05:36:58;98018.97;;;25.08;60.85
28267;BME280;15525;45.568;5.448;2023-06-22T05:39:24;98041.94;;;25.23;60.51
28267;BME280;15525;45.568;5.448;2023-06-22T05:41:51;98015.50;;;25.11;60.55
28267;BME280;15525;45.568;5.448;2023-06-22T05:44:16;97977.81;;;25.05;60.88
28267;BME280;15525;45.568;5.448;2023-06-22T05:46:43;97937.00;;;25.22;60.47
28267;BME280;15525;45.568;5.448;2023-06-22T05:49:14;97938.66;;;25.04;61.28
28267;BME280;15525;45.568;5.448;2023-06-22T05:51:42;97925.78;;;24.86;62.02
28267;BME280;15525;45.568;5.448;2023-06-22T05:54:07;97920.19;;;24.79;62.48
28267;BME280;15525;45.568;5.448;2023-06-22T05:56:34;97927.25;;;24.80;62.99
28267;BME280;15525;45.568;5.448;2023-06-22T05:58:59;97877.06;;;24.53;63.12
28267;BME280;15525;45.568;5.448;2023-06-22T06:01:25;97892.50;;;24.84;62.86
28267;BME280;15525;45.568;5.448;2023-06-22T06:03:51;97897.81;;;24.96;62.78
28267;BME280;15525;45.568;5.448;2023-06-22T06:06:18;97904.91;;;25.00;62.37
28267;BME280;15525;45.568;5.448;2023-06-22T06:08:43;97924.59;;;25.28;62.07
28267;BME280;15525;45.568;5.448;2023-06-22T06:11:08;97933.63;;;25.29;62.24
28267;BME280;15525;45.568;5.448;2023-06-22T06:13:34;97898.03;;;25.32;61.82
28267;BME280;15525;45.568;5.448;2023-06-22T06:15:59;97899.94;;;25.54;61.38
28267;BME280;15525;45.568;5.448;2023-06-22T06:18:25;97897.88;;;25.74;61.05
28267;BME280;15525;45.568;5.448;2023-06-22T06:20:51;97886.56;;;25.79;60.31
28267;BME280;15525;45.568;5.448;2023-06-22T06:23:16;97880.03;;;25.87;60.28
28267;BME280;15525;45.568;5.448;2023-06-22T06:25:42;97885.34;;;25.73;60.07
28267;BME280;15525;45.568;5.448;2023-06-22T06:28:07;97871.88;;;25.64;60.00
28267;BME280;15525;45.568;5.448;2023-06-22T06:30:33;97886.97;;;25.51;60.15
28267;BME280;15525;45.568;5.448;2023-06-22T06:32:58;97888.25;;;25.57;60.54
28267;BME280;15525;45.568;5.448;2023-06-22T06:35:23;97883.31;;;25.70;60.13
28267;BME280;15525;45.568;5.448;2023-06-22T06:37:50;97896.63;;;25.97;59.76
28267;BME280;15525;45.568;5.448;2023-06-22T06:40:17;97888.53;;;26.08;59.42
28267;BME280;15525;45.568;5.448;2023-06-22T06:42:44;97910.09;;;26.39;59.01
28267;BME280;15525;45.568;5.448;2023-06-22T06:45:23;97914.50;;;26.47;58.66
28267;BME280;15525;45.568;5.448;2023-06-22T06:47:50;97892.41;;;26.36;58.80
28267;BME280;15525;45.568;5.448;2023-06-22T06:50:16;97901.34;;;26.63;58.42
28267;BME280;15525;45.568;5.448;2023-06-22T06:52:41;97884.31;;;26.47;57.91
28267;BME280;15525;45.568;5.448;2023-06-22T06:55:08;97905.69;;;26.64;57.32
28267;BME280;15525;45.568;5.448;2023-06-22T06:57:40;97888.41;;;26.60;57.16
28267;BME280;15525;45.568;5.448;2023-06-22T07:00:11;97896.91;;;26.55;57.05
28267;BME280;15525;45.568;5.448;2023-06-22T07:02:39;97898.69;;;26.70;57.21
28267;BME280;15525;45.568;5.448;2023-06-22T07:05:05;97884.84;;;26.99;56.84
28267;BME280;15525;45.568;5.448;2023-06-22T07:07:31;97858.47;;;26.91;56.65
28267;BME280;15525;45.568;5.448;2023-06-22T07:09:57;97857.97;;;26.82;56.35
28267;BME280;15525;45.568;5.448;2023-06-22T07:12:22;97841.59;;;26.53;57.32
28267;BME280;15525;45.568;5.448;2023-06-22T07:14:48;97821.44;;;26.75;56.81
28267;BME280;15525;45.568;5.448;2023-06-22T07:17:13;97831.00;;;26.95;56.58
28267;BME280;15525;45.568;5.448;2023-06-22T07:19:39;97821.97;;;26.94;56.38
28267;BME280;15525;45.568;5.448;2023-06-22T07:22:05;97817.97;;;27.35;56.28
28267;BME280;15525;45.568;5.448;2023-06-22T07:24:30;97821.88;;;27.31;55.48
28267;BME280;15525;45.568;5.448;2023-06-22T07:26:57;97821.28;;;27.69;55.24
28267;BME280;15525;45.568;5.448;2023-06-22T07:29:24;97828.41;;;27.77;55.40
28267;BME280;15525;45.568;5.448;2023-06-22T07:31:50;97838.03;;;28.18;54.64
28267;BME280;15525;45.568;5.448;2023-06-22T07:34:16;97824.75;;;28.48;54.02
28267;BME280;15525;45.568;5.448;2023-06-22T07:36:43;97826.34;;;28.46;53.24
28267;BME280;15525;45.568;5.448;2023-06-22T07:39:09;97823.97;;;28.48;53.77
28267;BME280;15525;45.568;5.448;2023-06-22T07:41:34;97816.91;;;28.61;53.72
28267;BME280;15525;45.568;5.448;2023-06-22T07:43:59;97794.84;;;28.61;53.52
28267;BME280;15525;45.568;5.448;2023-06-22T07:46:25;97780.28;;;28.57;53.62
28267;BME280;15525;45.568;5.448;2023-06-22T07:48:50;97774.34;;;28.30;54.34
28267;BME280;15525;45.568;5.448;2023-06-22T07:51:16;97766.53;;;28.53;53.75
28267;BME280;15525;45.568;5.448;2023-06-22T07:53:42;97757.81;;;28.33;54.90
28267;BME280;15525;45.568;5.448;2023-06-22T07:56:11;97769.66;;;28.48;54.49
28267;BME280;15525;45.568;5.448;2023-06-22T07:58:37;97769.19;;;28.21;54.27
28267;BME280;15525;45.568;5.448;2023-06-22T08:01:02;97787.13;;;27.73;49.81
28267;BME280;15525;45.568;5.448;2023-06-22T08:03:28;97778.94;;;27.91;48.40
28267;BME280;15525;45.568;5.448;2023-06-22T08:05:54;97781.06;;;28.39;43.95
28267;BME280;15525;45.568;5.448;2023-06-22T08:08:19;97775.56;;;28.43;40.15
28267;BME280;15525;45.568;5.448;2023-06-22T08:10:45;97772.81;;;29.13;38.98
28267;BME280;15525;45.568;5.448;2023-06-22T08:13:10;97776.19;;;29.73;37.59
28267;BME280;15525;45.568;5.448;2023-06-22T08:15:36;97753.03;;;29.39;36.77
28267;BME280;15525;45.568;5.448;2023-06-22T08:18:01;97764.69;;;29.89;37.10
28267;BME280;15525;45.568;5.448;2023-06-22T08:20:27;97762.88;;;29.40;36.78
28267;BME280;15525;45.568;5.448;2023-06-22T08:22:53;97785.97;;;29.92;37.06
28267;BME280;15525;45.568;5.448;2023-06-22T08:25:19;97811.31;;;29.69;39.89
28267;BME280;15525;45.568;5.448;2023-06-22T08:27:45;97817.72;;;29.03;47.87
28267;BME280;15525;45.568;5.448;2023-06-22T08:30:12;97847.28;;;27.78;53.41
28267;BME280;15525;45.568;5.448;2023-06-22T08:32:37;97863.84;;;27.21;55.65
28267;BME280;15525;45.568;5.448;2023-06-22T08:35:03;97889.44;;;27.32;55.79
28267;BME280;15525;45.568;5.448;2023-06-22T08:37:29;97903.25;;;27.39;55.53
28267;BME280;15525;45.568;5.448;2023-06-22T08:40:01;97930.53;;;27.18;56.20
28267;BME280;15525;45.568;5.448;2023-06-22T08:42:27;97950.75;;;27.36;55.74
28267;BME280;15525;45.568;5.448;2023-06-22T08:44:52;97935.34;;;27.78;54.01
28267;BME280;15525;45.568;5.448;2023-06-22T08:47:19;97948.75;;;27.80;54.26
28267;BME280;15525;45.568;5.448;2023-06-22T08:49:45;97938.72;;;28.12;53.71
28267;BME280;15525;45.568;5.448;2023-06-22T08:52:10;97955.34;;;28.36;52.96
28267;BME280;15525;45.568;5.448;2023-06-22T08:54:36;97960.44;;;28.31;53.10
28267;BME280;15525;45.568;5.448;2023-06-22T08:57:02;97964.16;;;28.77;52.36
28267;BME280;15525;45.568;5.448;2023-06-22T08:59:27;97957.81;;;28.56;52.81
28267;BME280;15525;45.568;5.448;2023-06-22T09:01:53;97984.66;;;28.80;52.74
28267;BME280;15525;45.568;5.448;2023-06-22T09:04:18;97963.88;;;29.17;51.88
28267;BME280;15525;45.568;5.448;2023-06-22T09:06:43;97972.56;;;29.75;50.73
28267;BME280;15525;45.568;5.448;2023-06-22T09:09:12;97969.03;;;29.75;50.51
28267;BME280;15525;45.568;5.448;2023-06-22T09:11:38;97971.41;;;29.59;50.58
28267;BME280;15525;45.568;5.448;2023-06-22T09:14:03;97971.78;;;29.50;50.39
28267;BME280;15525;45.568;5.448;2023-06-22T09:16:29;97966.69;;;29.59;50.26
28267;BME280;15525;45.568;5.448;2023-06-22T09:18:55;97967.41;;;29.95;49.50
28267;BME280;15525;45.568;5.448;2023-06-22T09:21:20;97962.72;;;29.53;50.13
28267;BME280;15525;45.568;5.448;2023-06-22T09:23:46;97961.16;;;29.59;50.56
28267;BME280;15525;45.568;5.448;2023-06-22T09:26:15;97965.88;;;29.66;50.29
28267;BME280;15525;45.568;5.448;2023-06-22T09:28:41;97952.44;;;29.54;49.04
28267;BME280;15525;45.568;5.448;2023-06-22T09:31:06;97967.03;;;29.44;47.32
28267;BME280;15525;45.568;5.448;2023-06-22T09:33:32;97972.59;;;29.79;45.80
28267;BME280;15525;45.568;5.448;2023-06-22T09:35:57;97974.53;;;29.43;45.00
28267;BME280;15525;45.568;5.448;2023-06-22T09:38:23;97951.31;;;29.58;45.63
28267;BME280;15525;45.568;5.448;2023-06-22T09:40:48;97947.72;;;29.86;44.74
28267;BME280;15525;45.568;5.448;2023-06-22T09:43:13;97954.41;;;29.50;45.37
28267;BME280;15525;45.568;5.448;2023-06-22T09:45:39;97988.72;;;29.42;45.48
28267;BME280;15525;45.568;5.448;2023-06-22T09:48:05;97987.16;;;29.48;45.75
28267;BME280;15525;45.568;5.448;2023-06-22T09:50:30;97970.19;;;29.28;45.15
28267;BME280;15525;45.568;5.448;2023-06-22T09:52:55;97973.34;;;29.41;45.36
28267;BME280;15525;45.568;5.448;2023-06-22T09:55:21;97960.75;;;29.85;44.70
28267;BME280;15525;45.568;5.448;2023-06-22T09:57:47;97954.03;;;29.83;45.00
28267;BME280;15525;45.568;5.448;2023-06-22T10:00:14;97935.81;;;30.17;44.42
28267;BME280;15525;45.568;5.448;2023-06-22T10:02:44;97922.75;;;30.28;44.87
28267;BME280;15525;45.568;5.448;2023-06-22T10:05:10;97933.44;;;30.22;44.88
28267;BME280;15525;45.568;5.448;2023-06-22T10:07:35;97942.50;;;30.26;45.26
28267;BME280;15525;45.568;5.448;2023-06-22T10:10:06;97961.13;;;29.87;45.45
28267;BME280;15525;45.568;5.448;2023-06-22T10:12:31;97981.63;;;29.86;45.57
28267;BME280;15525;45.568;5.448;2023-06-22T10:14:57;98007.25;;;29.97;45.66
28267;BME280;15525;45.568;5.448;2023-06-22T10:17:22;98007.25;;;29.97;45.72
28267;BME280;15525;45.568;5.448;2023-06-22T10:19:47;97982.38;;;30.08;45.13
28267;BME280;15525;45.568;5.448;2023-06-22T10:22:13;97993.06;;;29.88;45.54
28267;BME280;15525;45.568;5.448;2023-06-22T10:24:38;98008.47;;;29.61;45.79
28267;BME280;15525;45.568;5.448;2023-06-22T10:27:12;98013.22;;;29.61;45.93
28267;BME280;15525;45.568;5.448;2023-06-22T10:29:38;97989.94;;;29.58;46.31
28267;BME280;15525;45.568;5.448;2023-06-22T10:32:04;98007.66;;;29.92;46.68
28267;BME280;15525;45.568;5.448;2023-06-22T10:34:30;97984.81;;;29.67;48.54
28267;BME280;15525;45.568;5.448;2023-06-22T10:36:55;98001.31;;;30.23;48.82
28267;BME280;15525;45.568;5.448;2023-06-22T10:39:21;98025.34;;;30.40;47.86
28267;BME280;15525;45.568;5.448;2023-06-22T10:41:46;97992.59;;;30.39;47.17
28267;BME280;15525;45.568;5.448;2023-06-22T10:44:11;98025.66;;;30.70;47.22
28267;BME280;15525;45.568;5.448;2023-06-22T10:46:37;97998.56;;;30.23;47.78
28267;BME280;15525;45.568;5.448;2023-06-22T10:49:03;98020.69;;;29.92;49.01
28267;BME280;15525;45.568;5.448;2023-06-22T10:51:29;98013.94;;;30.10;48.87
28267;BME280;15525;45.568;5.448;2023-06-22T10:53:54;97990.28;;;30.16;48.48
28267;BME280;15525;45.568;5.448;2023-06-22T10:56:19;97987.78;;;30.57;48.15
28267;BME280;15525;45.568;5.448;2023-06-22T10:58:45;97976.25;;;30.79;48.07
28267;BME280;15525;45.568;5.448;2023-06-22T11:01:11;97983.78;;;30.72;47.33
28267;BME280;15525;45.568;5.448;2023-06-22T11:03:36;98008.16;;;30.98;47.88
28267;BME280;15525;45.568;5.448;2023-06-22T11:06:02;98015.88;;;31.31;46.92
28267;BME280;15525;45.568;5.448;2023-06-22T11:08:27;98015.72;;;31.52;46.43
28267;BME280;15525;45.568;5.448;2023-06-22T11:10:53;98026.50;;;31.90;46.22
28267;BME280;15525;45.568;5.448;2023-06-22T11:13:18;98033.66;;;32.65;46.05
28267;BME280;15525;45.568;5.448;2023-06-22T11:15:43;98051.91;;;32.22;43.77
28267;BME280;15525;45.568;5.448;2023-06-22T11:18:09;98039.72;;;32.57;45.47
28267;BME280;15525;45.568;5.448;2023-06-22T11:20:34;98032.63;;;33.46;44.93
28267;BME280;15525;45.568;5.448;2023-06-22T11:23:04;98059.31;;;33.89;42.00
28267;BME280;15525;45.568;5.448;2023-06-22T11:25:30;98033.34;;;32.93;42.33
28267;BME280;15525;45.568;5.448;2023-06-22T11:27:56;98033.22;;;31.89;40.64
28267;BME280;15525;45.568;5.448;2023-06-22T11:30:21;98042.34;;;31.90;41.31
28267;BME280;15525;45.568;5.448;2023-06-22T11:32:47;98041.72;;;32.12;41.72
28267;BME280;15525;45.568;5.448;2023-06-22T11:35:13;98024.78;;;32.03;41.13
28267;BME280;15525;45.568;5.448;2023-06-22T11:37:38;98024.41;;;32.45;40.85
28267;BME280;15525;45.568;5.448;2023-06-22T11:40:04;98034.06;;;32.30;41.13
28267;BME280;15525;45.568;5.448;2023-06-22T11:42:30;98038.41;;;31.29;42.06
28267;BME280;15525;45.568;5.448;2023-06-22T11:44:56;98033.41;;;32.12;41.94
28267;BME280;15525;45.568;5.448;2023-06-22T11:47:21;98018.72;;;32.56;40.94
28267;BME280;15525;45.568;5.448;2023-06-22T11:49:47;98047.13;;;32.63;40.99
28267;BME280;15525;45.568;5.448;2023-06-22T11:52:12;98058.34;;;32.16;42.89
28267;BME280;15525;45.568;5.448;2023-06-22T11:54:37;98058.25;;;31.82;43.67
28267;BME280;15525;45.568;5.448;2023-06-22T11:57:04;98041.22;;;31.26;45.15
28267;BME280;15525;45.568;5.448;2023-06-22T11:59:29;98046.44;;;31.06;44.88
28267;BME280;15525;45.568;5.448;2023-06-22T12:01:55;98056.53;;;30.44;46.06
28267;BME280;15525;45.568;5.448;2023-06-22T12:04:20;98068.03;;;30.15;46.88
28267;BME280;15525;45.568;5.448;2023-06-22T12:06:46;98070.00;;;30.14;46.33
28267;BME280;15525;45.568;5.448;2023-06-22T12:09:11;98057.19;;;30.87;45.44
28267;BME280;15525;45.568;5.448;2023-06-22T12:11:39;98059.22;;;30.65;45.39
28267;BME280;15525;45.568;5.448;2023-06-22T12:14:04;98073.84;;;30.62;45.95
28267;BME280;15525;45.568;5.448;2023-06-22T12:16:29;98051.00;;;30.37;45.45
28267;BME280;15525;45.568;5.448;2023-06-22T12:18:55;98066.81;;;30.09;46.48
28267;BME280;15525;45.568;5.448;2023-06-22T12:21:20;98066.44;;;29.93;47.57
28267;BME280;15525;45.568;5.448;2023-06-22T12:23:46;98074.28;;;29.45;42.55
28267;BME280;15525;45.568;5.448;2023-06-22T12:26:11;98092.84;;;29.87;41.33
28267;BME280;15525;45.568;5.448;2023-06-22T12:28:36;98076.13;;;29.06;40.13
28267;BME280;15525;45.568;5.448;2023-06-22T12:31:02;98063.69;;;29.93;38.99
28267;BME280;15525;45.568;5.448;2023-06-22T12:33:27;98062.50;;;30.18;37.11
28267;BME280;15525;45.568;5.448;2023-06-22T12:35:53;98059.69;;;29.55;37.62
28267;BME280;15525;45.568;5.448;2023-06-22T12:38:18;98048.69;;;29.62;37.53
28267;BME280;15525;45.568;5.448;2023-06-22T12:40:44;98056.56;;;30.09;36.86
28267;BME280;15525;45.568;5.448;2023-06-22T12:43:09;98039.09;;;30.58;36.42
28267;BME280;15525;45.568;5.448;2023-06-22T12:45:34;98043.00;;;30.81;35.41
28267;BME280;15525;45.568;5.448;2023-06-22T12:48:00;98032.28;;;30.87;35.60
28267;BME280;15525;45.568;5.448;2023-06-22T12:50:26;98012.31;;;30.48;36.37
28267;BME280;15525;45.568;5.448;2023-06-22T12:52:51;98030.19;;;31.73;35.65
28267;BME280;15525;45.568;5.448;2023-06-22T12:55:17;98036.09;;;31.14;35.48
28267;BME280;15525;45.568;5.448;2023-06-22T12:57:42;98008.31;;;30.59;35.91
28267;BME280;15525;45.568;5.448;2023-06-22T13:00:08;98024.25;;;29.78;35.58
28267;BME280;15525;45.568;5.448;2023-06-22T13:02:37;98013.16;;;29.50;36.29
28267;BME280;15525;45.568;5.448;2023-06-22T13:05:02;98005.97;;;28.97;37.04